Time;durP1;ratioP1;P1;durP2;ratioP2;P2;SDS_P1;SDS_P2;PMS_P1;PMS_P2;Temp;Humidity;BMP_temperature;BMP_pressure;BME280_temperature;BME280_humidity;BME280_pressure;Samples;Min_cycle;Max_cycle;Signal;HPM_P1;HPM_P2
2022/01/07 00:01:42;;;;;;;15.52;2.13;;;3.20;99.90;;;;;;4960069;28;20146;-89
2022/01/07 00:04:08;;;;;;;10.75;1.63;;;3.10;99.90;;;;;;4959448;28;20037;-89
2022/01/07 00:06:34;;;;;;;12.90;1.83;;;3.10;99.90;;;;;;4960153;28;20022;-90
2022/01/07 00:09:00;;;;;;;7.25;1.65;;;3.10;99.90;;;;;;4959980;28;20038;-90
2022/01/07 00:11:25;;;;;;;8.32;1.40;;;3.10;99.90;;;;;;4959902;28;20477;-90
2022/01/07 00:13:51;;;;;;;9.27;1.60;;;3.10;99.90;;;;;;4959928;28;20031;-88
2022/01/07 00:16:17;;;;;;;10.80;1.35;;;3.00;99.90;;;;;;4959956;28;20046;-89
2022/01/07 00:18:44;;;;;;;10.23;1.50;;;3.00;99.90;;;;;;4959895;28;20136;-89
2022/01/07 00:21:11;;;;;;;11.88;1.92;;;2.90;99.90;;;;;;4960195;28;20595;-89
2022/01/07 00:23:37;;;;;;;4.97;2.05;;;2.90;99.90;;;;;;4959811;28;20121;-89
2022/01/07 00:26:03;;;;;;;9.27;2.08;;;2.90;99.90;;;;;;4960041;28;20038;-89
2022/01/07 00:28:29;;;;;;;15.18;2.42;;;2.90;99.90;;;;;;4959774;28;20034;-88
2022/01/07 00:30:55;;;;;;;6.75;1.42;;;2.80;99.90;;;;;;4960170;28;20104;-90
2022/01/07 00:33:21;;;;;;;8.65;1.63;;;2.80;99.90;;;;;;4959880;28;20027;-88
2022/01/07 00:35:47;;;;;;;11.55;1.52;;;2.80;99.90;;;;;;4960901;28;20023;-88
2022/01/07 00:38:13;;;;;;;14.15;1.88;;;2.80;99.90;;;;;;4962288;28;20129;-89
2022/01/07 00:40:39;;;;;;;9.75;1.10;;;2.80;99.90;;;;;;4965038;28;20080;-89
2022/01/07 00:43:05;;;;;;;17.83;2.90;;;2.80;99.90;;;;;;4959443;28;20030;-89
2022/01/07 00:45:31;;;;;;;10.35;1.52;;;2.80;99.90;;;;;;4959758;28;20037;-89
2022/01/07 00:47:58;;;;;;;17.42;3.28;;;2.80;99.90;;;;;;4959019;28;20569;-88
2022/01/07 00:50:26;;;;;;;17.58;3.20;;;2.70;99.90;;;;;;4959519;28;20468;-90
2022/01/07 00:52:52;;;;;;;13.45;3.03;;;2.80;99.90;;;;;;4959358;28;20051;-88
2022/01/07 00:55:18;;;;;;;6.35;1.52;;;2.70;99.90;;;;;;4959194;28;20373;-89
2022/01/07 00:57:44;;;;;;;8.00;1.95;;;2.70;99.90;;;;;;4959059;28;20054;-89
2022/01/07 01:00:16;;;;;;;4.38;1.38;;;2.70;99.90;;;;;;4959602;28;20190;-89
2022/01/07 01:02:42;;;;;;;10.40;3.85;;;2.70;99.90;;;;;;4959258;28;20035;-89
2022/01/07 01:05:10;;;;;;;7.05;1.60;;;2.70;99.90;;;;;;4959163;28;20027;-89
2022/01/07 01:07:36;;;;;;;9.98;1.13;;;2.70;99.90;;;;;;4959105;28;20027;-89
2022/01/07 01:10:05;;;;;;;10.55;1.42;;;2.70;99.90;;;;;;4959126;28;20027;-89
2022/01/07 01:12:31;;;;;;;7.50;1.23;;;2.80;99.90;;;;;;4958932;28;20449;-89
2022/01/07 01:14:57;;;;;;;8.20;1.45;;;2.80;99.90;;;;;;4958019;28;20034;-89
2022/01/07 01:17:23;;;;;;;11.45;1.20;;;2.80;99.90;;;;;;4958478;28;20411;-88
2022/01/07 01:19:48;;;;;;;12.30;1.30;;;2.70;99.90;;;;;;4959086;28;20043;-88
2022/01/07 01:22:15;;;;;;;8.40;1.45;;;2.80;99.90;;;;;;4958760;28;20026;-89
2022/01/07 01:24:41;;;;;;;9.05;0.98;;;2.70;99.90;;;;;;4958474;28;20027;-90
2022/01/07 01:27:07;;;;;;;12.05;2.88;;;2.80;99.90;;;;;;4958620;28;20027;-89
2022/01/07 01:29:34;;;;;;;12.55;2.10;;;2.80;99.90;;;;;;4959025;28;20098;-90
2022/01/07 01:31:59;;;;;;;13.38;1.63;;;2.80;99.90;;;;;;4958785;28;20030;-89
2022/01/07 01:34:25;;;;;;;4.68;1.27;;;2.70;99.90;;;;;;4958456;28;20033;-88
2022/01/07 01:36:51;;;;;;;4.38;1.15;;;2.80;99.90;;;;;;4958172;28;20503;-88
2022/01/07 01:39:16;;;;;;;8.77;1.92;;;2.70;99.90;;;;;;4958571;28;20042;-89
2022/01/07 01:41:42;;;;;;;13.85;2.65;;;2.70;99.90;;;;;;4958820;28;20034;-89
2022/01/07 01:44:08;;;;;;;11.20;1.50;;;2.70;99.90;;;;;;4959774;28;20030;-89
2022/01/07 01:46:34;;;;;;;7.57;1.48;;;2.70;99.90;;;;;;4960166;28;20038;-89
2022/01/07 01:48:59;;;;;;;9.23;1.10;;;2.70;99.90;;;;;;4960187;28;20026;-89
2022/01/07 01:51:25;;;;;;;7.70;1.15;;;2.80;99.90;;;;;;4959713;28;20038;-89
2022/01/07 01:53:51;;;;;;;7.85;1.20;;;2.80;99.90;;;;;;4960921;28;20038;-87
2022/01/07 01:56:17;;;;;;;9.75;2.80;;;2.90;99.90;;;;;;4960827;28;20125;-89
2022/01/07 01:58:43;;;;;;;13.77;1.58;;;2.90;99.90;;;;;;4960425;28;20043;-90
2022/01/07 02:01:10;;;;;;;9.65;1.50;;;2.80;99.90;;;;;;4961006;28;20519;-90
2022/01/07 02:03:35;;;;;;;8.90;2.03;;;2.90;99.90;;;;;;4961777;28;20439;-89
2022/01/07 02:06:01;;;;;;;10.02;1.80;;;2.90;99.90;;;;;;4972497;28;20023;-90
2022/01/07 02:08:29;;;;;;;9.48;2.53;;;2.80;99.90;;;;;;4972641;28;20042;-90
2022/01/07 02:10:55;;;;;;;17.00;2.60;;;2.90;99.90;;;;;;4965126;28;20023;-89
2022/01/07 02:13:20;;;;;;;10.30;2.47;;;2.80;99.90;;;;;;4958458;28;20179;-90
2022/01/07 02:15:46;;;;;;;9.52;0.95;;;2.80;99.90;;;;;;4958321;28;20122;-90
2022/01/07 02:18:12;;;;;;;7.55;1.60;;;2.80;99.90;;;;;;4958632;28;20480;-90
2022/01/07 02:20:38;;;;;;;2.42;1.35;;;2.80;99.90;;;;;;4958712;28;20030;-90
2022/01/07 02:23:04;;;;;;;10.90;1.30;;;2.80;99.90;;;;;;4959286;28;20031;-90
2022/01/07 02:25:29;;;;;;;9.88;1.40;;;2.80;99.90;;;;;;4957919;28;20019;-89
2022/01/07 02:27:55;;;;;;;10.65;1.33;;;2.80;99.90;;;;;;4957736;28;20042;-91
2022/01/07 02:30:28;;;;;;;18.95;2.13;;;2.70;99.90;;;;;;4958098;28;20034;-90
2022/01/07 02:32:54;;;;;;;4.45;1.15;;;2.80;99.90;;;;;;4957290;28;20027;-88
2022/01/07 02:35:22;;;;;;;8.02;1.60;;;2.70;99.90;;;;;;4957325;28;20062;-91
2022/01/07 02:37:48;;;;;;;7.55;1.92;;;2.70;99.90;;;;;;4957410;28;20026;-90
2022/01/07 02:40:14;;;;;;;6.70;1.33;;;2.70;99.90;;;;;;4957242;28;20049;-89
2022/01/07 02:42:41;;;;;;;10.43;1.42;;;2.60;99.90;;;;;;4957048;28;20023;-90
2022/01/07 02:45:08;;;;;;;12.77;1.35;;;2.60;99.90;;;;;;4956456;28;20038;-90
2022/01/07 02:47:49;;;;;;;8.57;1.40;;;2.60;99.90;;;;;;4974358;28;20034;-92
2022/01/07 02:50:36;;;;;;;7.65;1.58;;;2.50;99.90;;;;;;4957053;28;20030;-90
2022/01/07 02:53:05;;;;;;;17.45;1.75;;;2.50;99.90;;;;;;4956870;28;20617;-91
2022/01/07 02:55:31;;;;;;;10.82;1.30;;;2.50;99.90;;;;;;4957048;28;20081;-89
2022/01/07 02:57:56;;;;;;;8.82;2.30;;;2.50;99.90;;;;;;4957126;28;20560;-90
2022/01/07 03:00:24;;;;;;;12.57;1.20;;;2.50;99.90;;;;;;4957142;28;20460;-91
2022/01/07 03:02:50;;;;;;;6.82;1.40;;;2.50;99.90;;;;;;4957076;28;20031;-90
2022/01/07 03:05:17;;;;;;;3.88;0.90;;;2.50;99.90;;;;;;4956918;28;20029;-90
2022/01/07 03:07:47;;;;;;;5.88;1.20;;;2.40;99.90;;;;;;4957011;28;20460;-90
2022/01/07 03:10:14;;;;;;;10.25;1.63;;;2.40;99.90;;;;;;4957123;28;20031;-90
2022/01/07 03:12:42;;;;;;;12.90;1.17;;;2.40;99.90;;;;;;4957162;28;20029;-92
2022/01/07 03:15:10;;;;;;;8.50;2.10;;;2.40;99.90;;;;;;4956944;28;20397;-90
2022/01/07 03:17:37;;;;;;;10.07;1.55;;;2.40;99.90;;;;;;4956790;28;20026;-90
2022/01/07 03:20:05;;;;;;;14.30;1.88;;;2.40;99.90;;;;;;4956682;28;20039;-90
2022/01/07 03:22:31;;;;;;;8.23;1.20;;;2.40;99.90;;;;;;4956904;28;20035;-89
2022/01/07 03:24:56;;;;;;;12.40;1.55;;;2.40;99.90;;;;;;4956966;28;20050;-90
2022/01/07 03:27:22;;;;;;;10.48;1.45;;;2.40;99.90;;;;;;4956958;28;20388;-90
2022/01/07 03:29:48;;;;;;;4.85;1.00;;;2.40;99.90;;;;;;4956733;28;20034;-91
2022/01/07 03:32:13;;;;;;;8.00;1.52;;;2.40;99.90;;;;;;4956974;28;20066;-91
2022/01/07 03:34:39;;;;;;;10.73;1.48;;;2.40;99.90;;;;;;4956690;28;20543;-92
2022/01/07 03:37:05;;;;;;;5.80;1.25;;;2.40;99.90;;;;;;4956954;28;20366;-89
2022/01/07 03:39:30;;;;;;;11.68;1.20;;;2.40;99.90;;;;;;4959283;28;20038;-90
2022/01/07 03:41:56;;;;;;;8.55;1.70;;;2.40;99.90;;;;;;4960371;28;20484;-90
2022/01/07 03:44:22;;;;;;;9.60;1.25;;;2.40;99.90;;;;;;4977534;28;20038;-91
2022/01/07 03:46:48;;;;;;;11.63;1.80;;;2.30;99.90;;;;;;4960442;28;20551;-89
2022/01/07 03:49:14;;;;;;;4.18;1.38;;;2.30;99.90;;;;;;4960325;28;20113;-90
2022/01/07 03:51:39;;;;;;;5.10;1.00;;;2.30;99.90;;;;;;4960316;28;20033;-90
2022/01/07 03:54:05;;;;;;;10.35;1.17;;;2.30;99.90;;;;;;4960864;28;20129;-92
2022/01/07 03:56:33;;;;;;;1.73;0.80;;;2.30;99.90;;;;;;4960876;28;20412;-90
2022/01/07 03:59:00;;;;;;;2.30;0.98;;;2.30;99.90;;;;;;4960376;28;20045;-88
2022/01/07 04:01:26;;;;;;;9.15;1.60;;;2.40;99.90;;;;;;4960375;28;20370;-91
2022/01/07 04:03:52;;;;;;;8.68;1.63;;;2.40;99.90;;;;;;4960363;28;20031;-91
2022/01/07 04:06:20;;;;;;;9.82;1.10;;;2.30;99.90;;;;;;4960985;28;20114;-90
2022/01/07 04:08:49;;;;;;;5.18;1.17;;;2.30;99.90;;;;;;4960999;28;20030;-91
2022/01/07 04:11:15;;;;;;;8.63;1.30;;;2.30;99.90;;;;;;4959929;28;20031;-90
2022/01/07 04:13:42;;;;;;;1.10;0.60;;;2.30;99.90;;;;;;4959869;28;20027;-90
2022/01/07 04:16:07;;;;;;;6.50;1.40;;;2.30;99.90;;;;;;4959811;28;20055;-91
2022/01/07 04:18:33;;;;;;;8.23;1.75;;;2.20;99.90;;;;;;4959764;28;20433;-89
2022/01/07 04:20:59;;;;;;;8.32;1.08;;;2.20;99.90;;;;;;4961841;28;20042;-89
2022/01/07 04:23:25;;;;;;;9.82;1.20;;;2.30;99.90;;;;;;4964076;28;20027;-91
2022/01/07 04:25:51;;;;;;;8.20;1.38;;;2.30;99.90;;;;;;4962427;28;20031;-90
2022/01/07 04:28:16;;;;;;;9.23;1.20;;;2.30;99.90;;;;;;4962796;28;20030;-91
2022/01/07 04:30:44;;;;;;;12.27;3.15;;;2.30;99.90;;;;;;4960515;28;20571;-91
2022/01/07 04:33:14;;;;;;;6.30;1.40;;;2.30;99.90;;;;;;4977247;28;20026;-90
2022/01/07 04:35:41;;;;;;;13.35;1.25;;;2.30;99.90;;;;;;4960402;28;20023;-90
2022/01/07 04:38:08;;;;;;;10.38;1.30;;;2.30;99.90;;;;;;4960062;28;20027;-90
2022/01/07 04:40:34;;;;;;;8.75;1.13;;;2.30;99.90;;;;;;4959981;28;20033;-90
2022/01/07 04:43:02;;;;;;;7.18;1.13;;;2.30;99.90;;;;;;4959996;28;20027;-90
2022/01/07 04:45:27;;;;;;;5.88;0.93;;;2.20;99.90;;;;;;4959988;28;20026;-92
2022/01/07 04:47:53;;;;;;;5.70;0.88;;;2.20;99.90;;;;;;4959963;28;20027;-90
2022/01/07 04:50:21;;;;;;;9.25;1.52;;;2.20;99.90;;;;;;4959211;28;20542;-90
2022/01/07 04:52:47;;;;;;;6.88;1.20;;;2.20;99.90;;;;;;4958774;28;20039;-91
2022/01/07 04:55:15;;;;;;;9.32;1.27;;;2.10;99.90;;;;;;4958905;28;20031;-89
2022/01/07 04:57:42;;;;;;;8.85;1.55;;;2.20;99.90;;;;;;4958827;28;20026;-91
2022/01/07 05:00:08;;;;;;;9.10;1.73;;;2.10;99.90;;;;;;4958826;28;20034;-88
2022/01/07 05:02:34;;;;;;;6.43;1.08;;;2.10;99.90;;;;;;4958736;28;20042;-89
2022/01/07 05:04:59;;;;;;;2.53;0.95;;;2.10;99.90;;;;;;4959032;28;20026;-89
2022/01/07 05:07:25;;;;;;;11.13;2.50;;;2.10;99.90;;;;;;4959267;28;20031;-90
2022/01/07 05:09:51;;;;;;;8.35;1.60;;;2.00;99.90;;;;;;4959412;28;20031;-91
2022/01/07 05:12:16;;;;;;;8.82;1.13;;;2.00;99.90;;;;;;4959422;28;20027;-89
2022/01/07 05:14:42;;;;;;;7.63;1.20;;;2.00;99.90;;;;;;4959401;28;20117;-90
2022/01/07 05:17:08;;;;;;;11.35;1.02;;;2.00;99.90;;;;;;4959450;28;20027;-89
2022/01/07 05:19:34;;;;;;;5.38;1.15;;;2.00;99.90;;;;;;4958810;28;20129;-91
2022/01/07 05:21:59;;;;;;;7.43;1.00;;;2.00;99.90;;;;;;4958509;28;20029;-91
2022/01/07 05:24:25;;;;;;;6.97;1.05;;;2.00;99.90;;;;;;4958453;28;20041;-91
2022/01/07 05:26:51;;;;;;;6.43;1.40;;;2.00;99.90;;;;;;4958070;28;20027;-90
2022/01/07 05:29:16;;;;;;;7.00;1.00;;;1.90;99.90;;;;;;4958213;28;20380;-91
2022/01/07 05:31:42;;;;;;;7.13;0.90;;;1.90;99.90;;;;;;4958539;28;20453;-90
2022/01/07 05:34:08;;;;;;;11.13;1.58;;;1.90;99.90;;;;;;4958523;28;20030;-90
2022/01/07 05:36:33;;;;;;;6.97;1.13;;;1.90;99.90;;;;;;4959143;28;20066;-90
2022/01/07 05:38:59;;;;;;;12.23;1.42;;;1.90;99.90;;;;;;4958787;28;20373;-90
2022/01/07 05:41:25;;;;;;;9.70;0.98;;;1.90;99.90;;;;;;4958847;28;20023;-91
2022/01/07 05:43:50;;;;;;;12.90;1.25;;;1.90;99.90;;;;;;4958108;28;20065;-90
2022/01/07 05:46:16;;;;;;;6.70;1.33;;;1.90;99.90;;;;;;4958985;28;20034;-91
2022/01/07 05:48:46;;;;;;;8.45;1.30;;;2.00;99.90;;;;;;4959549;28;20027;-89
2022/01/07 05:51:13;;;;;;;9.93;1.10;;;2.00;99.90;;;;;;4959637;28;20023;-90
2022/01/07 05:53:39;;;;;;;7.53;1.80;;;2.00;99.90;;;;;;4957922;28;20133;-90
2022/01/07 05:56:06;;;;;;;13.90;1.30;;;2.10;99.90;;;;;;4957280;28;20078;-89
2022/01/07 05:58:33;;;;;;;9.95;1.35;;;2.10;99.90;;;;;;4957578;28;20473;-90
2022/01/07 06:00:59;;;;;;;7.38;0.95;;;2.10;99.90;;;;;;4957534;28;20109;-90
2022/01/07 06:03:24;;;;;;;12.48;0.88;;;2.10;99.90;;;;;;4957873;28;20054;-91
2022/01/07 06:05:50;;;;;;;7.68;0.93;;;2.10;99.90;;;;;;4957786;28;20113;-90
2022/01/07 06:08:16;;;;;;;7.38;1.25;;;2.10;99.90;;;;;;4957599;28;20113;-90
2022/01/07 06:10:42;;;;;;;9.00;2.00;;;2.20;99.90;;;;;;4958049;28;20031;-90
2022/01/07 06:13:07;;;;;;;7.38;0.90;;;2.20;99.90;;;;;;4957281;28;20027;-89
2022/01/07 06:15:33;;;;;;;9.13;1.08;;;2.20;99.90;;;;;;4958201;28;20053;-90
2022/01/07 06:18:01;;;;;;;4.85;1.10;;;2.20;99.90;;;;;;4957165;28;20074;-91
2022/01/07 06:20:27;;;;;;;9.65;1.10;;;2.20;99.90;;;;;;4958045;28;20468;-91
2022/01/07 06:22:53;;;;;;;7.25;1.20;;;2.20;99.90;;;;;;4958144;28;20058;-89
2022/01/07 06:25:18;;;;;;;7.18;0.63;;;2.20;99.90;;;;;;4947030;29;20630;-92
2022/01/07 06:27:44;;;;;;;4.38;0.55;;;2.20;99.90;;;;;;4955081;29;20035;-90
2022/01/07 06:30:10;;;;;;;4.60;0.70;;;2.20;99.90;;;;;;4957251;28;20070;-90
2022/01/07 06:32:36;;;;;;;5.03;0.90;;;2.20;99.90;;;;;;4958573;28;20061;-90
2022/01/07 06:35:02;;;;;;;9.85;0.98;;;2.20;99.90;;;;;;4957996;28;20030;-89
2022/01/07 06:37:28;;;;;;;4.03;0.93;;;2.20;99.90;;;;;;4957524;28;20027;-90
2022/01/07 06:39:55;;;;;;;3.47;1.17;;;2.20;99.90;;;;;;4957782;28;20369;-89
2022/01/07 06:42:21;;;;;;;5.07;0.77;;;2.10;99.90;;;;;;4957218;28;20038;-90
2022/01/07 06:44:47;;;;;;;2.65;1.10;;;2.10;99.90;;;;;;4957572;28;20532;-90
2022/01/07 06:47:13;;;;;;;11.52;1.40;;;2.10;99.90;;;;;;4956905;28;20048;-90
2022/01/07 06:49:38;;;;;;;5.30;1.08;;;2.10;99.90;;;;;;4957235;28;20026;-89
2022/01/07 06:52:05;;;;;;;8.65;1.65;;;2.20;99.90;;;;;;4955598;28;20042;-92
2022/01/07 06:54:31;;;;;;;4.57;0.90;;;2.10;99.90;;;;;;4959995;28;20049;-89
2022/01/07 06:56:57;;;;;;;6.32;1.45;;;2.10;99.90;;;;;;4961213;28;20071;-89
2022/01/07 06:59:23;;;;;;;3.35;0.50;;;2.10;99.90;;;;;;4962678;28;20049;-89
2022/01/07 07:01:49;;;;;;;9.20;1.00;;;2.10;99.90;;;;;;4960216;28;20026;-90
2022/01/07 07:04:16;;;;;;;10.27;1.08;;;2.10;99.90;;;;;;4959159;28;20062;-89
2022/01/07 07:06:47;;;;;;;4.97;1.30;;;2.10;99.90;;;;;;4956588;28;20110;-91
2022/01/07 07:09:15;;;;;;;10.45;1.10;;;2.10;99.90;;;;;;4952789;28;20023;-91
2022/01/07 07:11:43;;;;;;;9.43;1.10;;;2.00;99.90;;;;;;4957429;28;20023;-89
2022/01/07 07:14:13;;;;;;;7.88;1.15;;;2.00;99.90;;;;;;4959771;28;20026;-92
2022/01/07 07:16:39;;;;;;;4.30;1.05;;;2.00;99.90;;;;;;4961218;28;20023;-91
2022/01/07 07:19:05;;;;;;;10.00;1.92;;;2.10;99.90;;;;;;4958276;28;20039;-91
2022/01/07 07:21:31;;;;;;;4.72;0.60;;;2.10;99.90;;;;;;4969510;28;20030;-91
2022/01/07 07:23:56;;;;;;;7.53;0.73;;;2.10;99.90;;;;;;4962099;28;20022;-93
2022/01/07 07:26:22;;;;;;;8.80;1.67;;;2.10;99.90;;;;;;4964414;28;20031;-94
2022/01/07 07:28:50;;;;;;;7.10;0.90;;;2.10;99.90;;;;;;4965315;28;20027;-96
2022/01/07 07:31:18;;;;;;;2.47;0.80;;;2.10;99.90;;;;;;4968106;28;20085;-92
2022/01/07 07:36:30;;;;;;;4.60;1.08;;;2.10;99.90;;;;;;4969628;28;20035;-92
2022/01/07 07:39:08;;;;;;;8.52;1.42;;;2.10;99.90;;;;;;4962590;28;20121;-93
2022/01/07 07:41:35;;;;;;;2.90;0.73;;;2.10;99.90;;;;;;4959556;28;20026;-91
2022/01/07 07:44:01;;;;;;;8.18;1.20;;;2.10;99.90;;;;;;4960933;28;20085;-91
2022/01/07 07:46:30;;;;;;;4.60;0.88;;;2.10;99.90;;;;;;4961065;28;20038;-92
2022/01/07 07:48:57;;;;;;;1.42;0.50;;;2.10;99.90;;;;;;4960840;28;20014;-92
2022/01/07 07:51:23;;;;;;;2.85;0.80;;;2.00;99.90;;;;;;4968396;28;20027;-92
2022/01/07 07:53:49;;;;;;;1.58;0.60;;;1.90;99.90;;;;;;4962470;28;20047;-89
2022/01/07 07:56:16;;;;;;;3.50;0.77;;;1.90;99.90;;;;;;4958487;28;20038;-92
2022/01/07 07:58:44;;;;;;;5.57;0.68;;;1.80;99.90;;;;;;4964826;28;20038;-91
2022/01/07 08:01:11;;;;;;;3.80;0.90;;;1.70;99.90;;;;;;4959147;28;20019;-91
2022/01/07 08:03:37;;;;;;;3.13;0.80;;;1.60;99.90;;;;;;4958991;28;20400;-91
2022/01/07 08:06:05;;;;;;;1.95;0.63;;;1.60;99.90;;;;;;4959243;28;20022;-91
2022/01/07 08:08:31;;;;;;;5.57;1.30;;;1.60;99.90;;;;;;4958512;28;20065;-89
2022/01/07 08:11:02;;;;;;;9.45;2.65;;;1.50;99.90;;;;;;4958138;28;20019;-90
2022/01/07 08:13:29;;;;;;;8.52;1.60;;;1.50;99.90;;;;;;4958842;28;20042;-89
2022/01/07 08:16:02;;;;;;;5.47;1.00;;;1.50;99.90;;;;;;4958522;28;20123;-90
2022/01/07 08:18:30;;;;;;;4.47;1.17;;;1.50;99.90;;;;;;4952717;29;20035;-89
2022/01/07 08:20:59;;;;;;;5.70;1.35;;;1.50;99.90;;;;;;4956613;28;20024;-88
2022/01/07 08:23:25;;;;;;;9.77;2.60;;;1.50;99.90;;;;;;4958437;28;20089;-90
2022/01/07 08:25:51;;;;;;;10.98;2.50;;;1.50;99.90;;;;;;4958635;28;20432;-90
2022/01/07 08:28:17;;;;;;;8.23;1.25;;;1.50;99.90;;;;;;4955856;28;20034;-89
2022/01/07 08:31:11;;;;;;;4.10;0.80;;;1.50;99.90;;;;;;4952986;29;20051;-90
2022/01/07 08:36:27;;;;;;;4.80;1.50;;;1.60;99.90;;;;;;4955977;28;20320;-89
2022/01/07 08:38:53;;;;;;;9.48;2.38;;;1.70;99.90;;;;;;4950355;28;20038;-89
2022/01/07 08:41:22;;;;;;;6.95;2.50;;;1.70;99.90;;;;;;4949127;28;20053;-89
2022/01/07 08:43:48;;;;;;;10.68;2.95;;;1.70;99.90;;;;;;4947060;28;20114;-92
2022/01/07 08:46:16;;;;;;;12.52;2.30;;;1.70;99.90;;;;;;4964991;28;20114;-90
2022/01/07 08:48:43;;;;;;;17.55;2.20;;;1.80;99.90;;;;;;4951365;28;20023;-89
2022/01/07 08:51:10;;;;;;;9.27;1.65;;;1.80;99.90;;;;;;4954812;28;20024;-90
2022/01/07 08:53:36;;;;;;;6.85;1.38;;;1.80;99.90;;;;;;4942402;29;20063;-90
2022/01/07 08:56:03;;;;;;;5.72;1.73;;;1.80;99.90;;;;;;4947263;28;20487;-93
2022/01/07 08:58:29;;;;;;;8.18;1.40;;;1.90;99.90;;;;;;4957732;28;20024;-90
2022/01/07 09:00:58;;;;;;;10.10;0.98;;;1.90;99.90;;;;;;4963401;28;20487;-92
2022/01/07 09:03:24;;;;;;;14.75;1.48;;;1.90;99.90;;;;;;4944777;28;20027;-90
2022/01/07 09:05:50;;;;;;;8.82;1.13;;;1.90;99.90;;;;;;4945757;29;20038;-90
2022/01/07 09:08:16;;;;;;;11.85;1.02;;;1.90;99.90;;;;;;4947222;28;20058;-89
2022/01/07 09:10:42;;;;;;;4.55;1.20;;;1.90;99.90;;;;;;4949076;28;20026;-89
2022/01/07 09:13:09;;;;;;;8.15;1.15;;;1.90;99.90;;;;;;4962576;28;20115;-90
2022/01/07 09:15:36;;;;;;;7.72;1.30;;;2.00;99.90;;;;;;4956176;28;20062;-89
2022/01/07 09:18:09;;;;;;;7.53;2.03;;;1.90;99.90;;;;;;4957477;28;20144;-89
2022/01/07 09:20:44;;;;;;;9.77;2.53;;;1.90;99.90;;;;;;4956629;28;20033;-91
2022/01/07 09:23:11;;;;;;;11.20;1.30;;;1.90;99.90;;;;;;4957925;28;20030;-90
2022/01/07 09:25:38;;;;;;;6.53;1.38;;;1.90;99.90;;;;;;4958639;28;20027;-90
2022/01/07 09:28:05;;;;;;;7.78;1.40;;;1.90;99.90;;;;;;4956921;28;20035;-90
2022/01/07 09:30:32;;;;;;;8.13;1.92;;;1.80;99.90;;;;;;4973035;28;20023;-90
2022/01/07 09:32:58;;;;;;;7.63;1.92;;;1.80;99.90;;;;;;4957566;28;20058;-93
2022/01/07 09:35:24;;;;;;;14.02;2.17;;;1.70;99.90;;;;;;4951318;28;20041;-89
2022/01/07 09:37:50;;;;;;;5.50;1.50;;;1.60;99.90;;;;;;4950853;29;20027;-91
2022/01/07 09:40:17;;;;;;;7.13;1.75;;;1.70;99.90;;;;;;4959434;28;20031;-88
2022/01/07 09:43:01;;;;;;;9.15;1.58;;;1.60;99.90;;;;;;4955685;29;20062;-91
2022/01/07 09:45:28;;;;;;;5.05;1.27;;;1.60;99.90;;;;;;4956017;29;20028;-90
2022/01/07 09:47:55;;;;;;;8.93;1.65;;;1.60;99.90;;;;;;4968851;28;20110;-91
2022/01/07 09:50:24;;;;;;;5.28;1.23;;;1.60;99.90;;;;;;4948607;28;20031;-91
2022/01/07 09:52:49;;;;;;;6.43;1.38;;;1.60;99.90;;;;;;4953596;29;20062;-91
2022/01/07 09:55:15;;;;;;;7.95;1.50;;;1.60;99.90;;;;;;4955123;28;20039;-90
2022/01/07 09:57:41;;;;;;;5.80;1.42;;;1.60;99.90;;;;;;4951666;29;20027;-91
2022/01/07 10:00:09;;;;;;;6.60;2.35;;;1.60;99.90;;;;;;4955313;28;20094;-90
2022/01/07 10:02:34;;;;;;;6.03;2.33;;;1.60;99.90;;;;;;4947748;29;20022;-91
2022/01/07 10:05:15;;;;;;;8.73;2.13;;;1.70;99.90;;;;;;4954991;28;20055;-87
2022/01/07 10:07:41;;;;;;;12.82;4.53;;;1.80;99.90;;;;;;4951198;29;20027;-88
2022/01/07 10:10:14;;;;;;;7.03;1.55;;;1.90;99.90;;;;;;4953241;28;20038;-89
2022/01/07 10:13:06;;;;;;;8.98;2.08;;;1.90;99.90;;;;;;4948323;28;20027;-90
2022/01/07 10:15:34;;;;;;;22.60;13.43;;;1.90;99.90;;;;;;4947559;28;20090;-90
2022/01/07 10:18:06;;;;;;;15.63;4.43;;;1.90;99.90;;;;;;4963678;28;20041;-89
2022/01/07 10:20:41;;;;;;;11.07;2.40;;;1.90;99.90;;;;;;4948852;28;20077;-90
2022/01/07 10:23:08;;;;;;;3.63;1.45;;;2.00;99.90;;;;;;4948392;28;20027;-89
2022/01/07 10:25:39;;;;;;;4.72;1.60;;;2.00;99.90;;;;;;4961094;28;20117;-89
2022/01/07 10:28:16;;;;;;;9.18;1.45;;;2.00;99.90;;;;;;4949099;28;20031;-88
2022/01/07 10:30:45;;;;;;;9.48;1.88;;;2.00;99.90;;;;;;4947002;28;20077;-89
2022/01/07 10:33:22;;;;;;;7.18;1.52;;;2.10;99.90;;;;;;4946344;28;20113;-88
2022/01/07 10:35:54;;;;;;;15.88;4.10;;;2.20;99.90;;;;;;4945582;28;20043;-89
2022/01/07 10:38:25;;;;;;;7.18;1.45;;;2.40;99.90;;;;;;4946283;28;20118;-88
2022/01/07 10:40:53;;;;;;;9.10;1.60;;;2.70;99.90;;;;;;4946762;28;20027;-91
2022/01/07 10:43:24;;;;;;;2.95;0.98;;;2.90;99.90;;;;;;4946781;28;20027;-89
2022/01/07 10:45:57;;;;;;;8.85;2.15;;;3.00;99.90;;;;;;4947433;28;20039;-88
2022/01/07 10:48:36;;;;;;;4.30;1.63;;;3.00;99.90;;;;;;4964458;28;20038;-89
2022/01/07 10:51:11;;;;;;;10.70;1.75;;;2.90;99.90;;;;;;4945370;28;20059;-89
2022/01/07 10:53:38;;;;;;;5.63;1.42;;;2.80;99.90;;;;;;4951420;28;20106;-89
2022/01/07 10:56:14;;;;;;;5.28;1.48;;;2.80;99.90;;;;;;4951741;28;20487;-91
2022/01/07 10:58:42;;;;;;;9.23;1.20;;;2.90;99.90;;;;;;4951546;28;20038;-90
2022/01/07 11:01:21;;;;;;;8.60;1.30;;;2.80;99.90;;;;;;4953648;28;20054;-89
2022/01/07 11:03:52;;;;;;;11.45;1.40;;;2.80;99.90;;;;;;4961602;28;20165;-90
2022/01/07 11:06:20;;;;;;;10.50;1.80;;;2.80;99.90;;;;;;4963826;28;20090;-91
2022/01/07 11:08:51;;;;;;;6.00;1.42;;;2.80;99.90;;;;;;4961513;28;20030;-89
2022/01/07 11:11:22;;;;;;;9.75;1.60;;;2.90;99.90;;;;;;4961809;28;20022;-89
2022/01/07 11:13:48;;;;;;;4.95;1.27;;;3.10;99.90;;;;;;4961062;28;20027;-89
2022/01/07 11:16:15;;;;;;;11.18;1.90;;;3.50;99.90;;;;;;4962103;28;20030;-90
2022/01/07 11:18:43;;;;;;;8.13;1.70;;;3.70;99.90;;;;;;4962068;28;20126;-90
2022/01/07 11:21:10;;;;;;;8.50;1.50;;;3.80;99.90;;;;;;4961576;28;20023;-90
2022/01/07 11:23:38;;;;;;;10.05;1.98;;;3.60;99.90;;;;;;4961823;28;20050;-89
2022/01/07 11:26:09;;;;;;;10.05;2.15;;;3.40;99.90;;;;;;4961233;28;20027;-91
2022/01/07 11:28:36;;;;;;;12.00;1.67;;;3.30;99.90;;;;;;4961248;28;20027;-90
2022/01/07 11:31:11;;;;;;;13.18;3.28;;;3.10;99.90;;;;;;4961180;28;20118;-89
2022/01/07 11:33:37;;;;;;;9.35;2.38;;;2.90;99.90;;;;;;4961511;28;20027;-91
2022/01/07 11:36:03;;;;;;;4.78;1.60;;;2.70;99.90;;;;;;4961178;28;20117;-90
2022/01/07 11:38:38;;;;;;;9.32;1.98;;;2.60;99.90;;;;;;4961360;28;20527;-90
2022/01/07 11:41:09;;;;;;;9.05;2.90;;;2.50;99.90;;;;;;4960992;28;20031;-90
2022/01/07 11:43:39;;;;;;;10.55;2.85;;;2.30;99.90;;;;;;4961245;28;20030;-91
2022/01/07 11:46:29;;;;;;;10.77;2.47;;;2.20;99.90;;;;;;4960863;28;20448;-91
2022/01/07 11:48:57;;;;;;;14.35;3.17;;;2.10;99.90;;;;;;4961705;28;20282;-92
2022/01/07 11:51:23;;;;;;;8.93;1.98;;;2.00;99.90;;;;;;4963508;28;20023;-91
2022/01/07 11:53:49;;;;;;;9.32;2.22;;;2.00;99.90;;;;;;4961837;28;20047;-90
2022/01/07 11:56:17;;;;;;;9.27;2.60;;;1.90;99.90;;;;;;4961776;28;20027;-90
2022/01/07 11:58:47;;;;;;;14.35;4.07;;;1.90;99.90;;;;;;4959405;28;20122;-91
2022/01/07 12:01:35;;;;;;;9.20;3.22;;;1.90;99.90;;;;;;4959565;28;20035;-89
2022/01/07 12:04:23;;;;;;;3.33;1.98;;;1.80;99.90;;;;;;4960087;28;20019;-90
2022/01/07 12:06:50;;;;;;;4.95;1.83;;;1.90;99.90;;;;;;4941250;29;20581;-92
2022/01/07 12:09:21;;;;;;;5.60;1.92;;;2.00;99.90;;;;;;4941482;29;20055;-90
2022/01/07 12:11:52;;;;;;;5.47;2.38;;;2.30;99.90;;;;;;4941005;29;20591;-90
2022/01/07 12:14:21;;;;;;;7.05;2.17;;;2.70;99.90;;;;;;4948644;28;20075;-92
2022/01/07 12:16:51;;;;;;;5.43;1.73;;;3.30;99.90;;;;;;4957002;28;20027;-91
2022/01/07 12:19:17;;;;;;;4.57;2.20;;;3.80;99.90;;;;;;4961076;28;20497;-91
2022/01/07 12:21:47;;;;;;;3.13;1.92;;;4.20;99.90;;;;;;4980578;28;20305;-90
2022/01/07 12:24:21;;;;;;;7.47;2.60;;;4.30;99.90;;;;;;4965566;28;20082;-90
2022/01/07 12:27:00;;;;;;;7.57;2.78;;;4.30;99.90;;;;;;4965178;28;20039;-90
2022/01/07 12:29:30;;;;;;;3.97;1.80;;;4.30;99.90;;;;;;4958747;29;20114;-90
2022/01/07 12:31:56;;;;;;;6.07;2.60;;;4.30;99.90;;;;;;4960208;28;20059;-91
2022/01/07 12:34:27;;;;;;;5.93;2.20;;;4.20;99.90;;;;;;4960660;28;20097;-91
2022/01/07 12:37:05;;;;;;;8.20;3.53;;;4.10;99.90;;;;;;4961634;28;20038;-91
2022/01/07 12:39:33;;;;;;;8.63;2.45;;;3.90;99.90;;;;;;4960994;28;20034;-92
2022/01/07 12:41:59;;;;;;;7.78;2.80;;;3.70;99.90;;;;;;4957477;28;20094;-91
2022/01/07 12:44:25;;;;;;;9.82;2.30;;;3.50;99.90;;;;;;4960049;28;20122;-91
2022/01/07 12:46:54;;;;;;;14.73;2.72;;;3.30;99.90;;;;;;4961891;28;20046;-92
2022/01/07 12:49:20;;;;;;;12.23;2.88;;;3.10;99.90;;;;;;4961622;28;20049;-91
2022/01/07 12:52:09;;;;;;;6.88;2.20;;;3.00;99.90;;;;;;4961770;28;20109;-92
2022/01/07 12:54:35;;;;;;;9.65;2.28;;;2.90;99.90;;;;;;4960577;28;20125;-90
2022/01/07 12:57:01;;;;;;;6.05;2.13;;;2.80;99.90;;;;;;4959936;28;20392;-91
2022/01/07 12:59:30;;;;;;;6.65;1.85;;;2.80;99.90;;;;;;4974634;28;20122;-90
2022/01/07 13:01:56;;;;;;;8.77;2.55;;;2.70;99.90;;;;;;4977662;28;20034;-93
2022/01/07 13:04:23;;;;;;;11.70;2.30;;;2.80;99.90;;;;;;4977142;28;20125;-91